sensor_id;sensor_type;location;lat;lon;timestamp;pressure;altitude;pressure_sealevel;temperature;humidity
39699;BME280;25372;50.582;12.250;2023-07-31T00:06:03;99520.34;;;15.29;70.46
39699;BME280;25372;50.582;12.250;2023-07-31T00:16:25;99515.31;;;15.16;70.94
39699;BME280;25372;50.582;12.250;2023-07-31T00:26:46;99509.41;;;15.03;68.95
39699;BME280;25372;50.582;12.250;2023-07-31T00:37:09;99497.75;;;15.15;71.65
39699;BME280;25372;50.582;12.250;2023-07-31T00:47:29;99492.50;;;15.25;69.90
39699;BME280;25372;50.582;12.250;2023-07-31T00:57:52;99481.06;;;15.15;70.52
39699;BME280;25372;50.582;12.250;2023-07-31T01:08:20;99479.94;;;15.07;68.65
39699;BME280;25372;50.582;12.250;2023-07-31T01:18:45;99466.81;;;14.96;68.64
39699;BME280;25372;50.582;12.250;2023-07-31T01:29:12;99469.34;;;14.98;69.48
39699;BME280;25372;50.582;12.250;2023-07-31T01:39:38;99469.28;;;14.88;70.79
39699;BME280;25372;50.582;12.250;2023-07-31T01:50:00;99459.00;;;14.85;68.47
39699;BME280;25372;50.582;12.250;2023-07-31T02:00:21;99456.03;;;15.29;68.63
39699;BME280;25372;50.582;12.250;2023-07-31T02:10:43;99442.81;;;15.48;67.35
39699;BME280;25372;50.582;12.250;2023-07-31T02:21:04;99433.91;;;15.59;68.58
39699;BME280;25372;50.582;12.250;2023-07-31T02:31:27;99436.13;;;15.74;65.90
39699;BME280;25372;50.582;12.250;2023-07-31T02:41:47;99441.72;;;15.61;65.00
39699;BME280;25372;50.582;12.250;2023-07-31T02:52:10;99433.22;;;15.37;65.27
39699;BME280;25372;50.582;12.250;2023-07-31T03:02:30;99437.50;;;14.99;67.96
39699;BME280;25372;50.582;12.250;2023-07-31T03:12:53;99440.69;;;15.03;68.93
39699;BME280;25372;50.582;12.250;2023-07-31T03:23:14;99444.63;;;15.28;67.74
39699;BME280;25372;50.582;12.250;2023-07-31T03:33:36;99462.03;;;15.41;71.06
39699;BME280;25372;50.582;12.250;2023-07-31T03:43:57;99457.41;;;15.13;76.33
39699;BME280;25372;50.582;12.250;2023-07-31T03:54:20;99457.78;;;14.89;78.56
39699;BME280;25372;50.582;12.250;2023-07-31T04:04:40;99439.41;;;14.97;79.95
39699;BME280;25372;50.582;12.250;2023-07-31T04:15:03;99439.28;;;14.58;84.59
39699;BME280;25372;50.582;12.250;2023-07-31T04:25:24;99416.38;;;14.27;86.55
39699;BME280;25372;50.582;12.250;2023-07-31T04:35:50;99400.84;;;14.12;88.93
39699;BME280;25372;50.582;12.250;2023-07-31T04:46:11;99395.00;;;14.09;88.50
39699;BME280;25372;50.582;12.250;2023-07-31T04:56:33;99398.75;;;14.06;89.12
39699;BME280;25372;50.582;12.250;2023-07-31T05:06:54;99399.09;;;14.23;89.10
39699;BME280;25372;50.582;12.250;2023-07-31T05:17:17;99385.19;;;14.62;88.59
39699;BME280;25372;50.582;12.250;2023-07-31T05:27:38;99380.06;;;14.60;86.75
39699;BME280;25372;50.582;12.250;2023-07-31T05:38:00;99377.75;;;14.87;86.21
39699;BME280;25372;50.582;12.250;2023-07-31T05:48:20;99371.25;;;15.01;85.42
39699;BME280;25372;50.582;12.250;2023-07-31T05:58:43;99374.59;;;14.93;85.83
39699;BME280;25372;50.582;12.250;2023-07-31T06:09:03;99360.53;;;15.12;85.04
39699;BME280;25372;50.582;12.250;2023-07-31T06:19:26;99372.78;;;15.43;83.37
39699;BME280;25372;50.582;12.250;2023-07-31T06:29:46;99374.28;;;15.65;81.09
39699;BME280;25372;50.582;12.250;2023-07-31T06:40:10;99379.31;;;15.58;83.16
39699;BME280;25372;50.582;12.250;2023-07-31T06:50:31;99352.81;;;15.68;81.85
39699;BME280;25372;50.582;12.250;2023-07-31T07:00:54;99375.34;;;16.02;79.39
39699;BME280;25372;50.582;12.250;2023-07-31T07:11:15;99354.53;;;16.45;79.45
39699;BME280;25372;50.582;12.250;2023-07-31T07:21:37;99372.31;;;16.81;76.13
39699;BME280;25372;50.582;12.250;2023-07-31T07:31:58;99359.88;;;17.09;74.62
39699;BME280;25372;50.582;12.250;2023-07-31T07:42:20;99350.47;;;17.33;74.17
39699;BME280;25372;50.582;12.250;2023-07-31T07:52:41;99360.16;;;17.42;74.72
39699;BME280;25372;50.582;12.250;2023-07-31T08:03:03;99368.97;;;17.69;72.88
39699;BME280;25372;50.582;12.250;2023-07-31T08:13:24;99370.50;;;18.76;69.99
39699;BME280;25372;50.582;12.250;2023-07-31T08:23:46;99370.75;;;18.48;68.24
39699;BME280;25372;50.582;12.250;2023-07-31T08:34:07;99378.81;;;18.30;68.77
39699;BME280;25372;50.582;12.250;2023-07-31T08:44:29;99374.91;;;17.89;69.89
39699;BME280;25372;50.582;12.250;2023-07-31T08:54:51;99368.94;;;17.87;69.03
39699;BME280;25372;50.582;12.250;2023-07-31T09:05:14;99368.03;;;17.79;69.61
39699;BME280;25372;50.582;12.250;2023-07-31T09:15:35;99369.69;;;17.80;67.50
39699;BME280;25372;50.582;12.250;2023-07-31T09:25:57;99354.53;;;17.98;67.82
39699;BME280;25372;50.582;12.250;2023-07-31T09:36:20;99356.63;;;18.05;67.71
39699;BME280;25372;50.582;12.250;2023-07-31T09:46:42;99337.84;;;18.06;66.39
39699;BME280;25372;50.582;12.250;2023-07-31T09:57:03;99335.31;;;18.39;66.18
39699;BME280;25372;50.582;12.250;2023-07-31T10:07:27;99330.75;;;18.58;66.57
39699;BME280;25372;50.582;12.250;2023-07-31T10:17:50;99324.28;;;18.77;66.15
39699;BME280;25372;50.582;12.250;2023-07-31T10:28:14;99310.91;;;19.12;65.34
39699;BME280;25372;50.582;12.250;2023-07-31T10:38:34;99296.25;;;19.33;64.05
39699;BME280;25372;50.582;12.250;2023-07-31T10:49:01;99297.34;;;19.72;62.88
39699;BME280;25372;50.582;12.250;2023-07-31T10:59:26;99270.25;;;19.60;62.71
39699;BME280;25372;50.582;12.250;2023-07-31T11:09:49;99282.91;;;19.49;62.77
39699;BME280;25372;50.582;12.250;2023-07-31T11:20:10;99286.78;;;19.22;65.18
39699;BME280;25372;50.582;12.250;2023-07-31T11:30:33;99269.00;;;19.22;67.22
39699;BME280;25372;50.582;12.250;2023-07-31T11:40:57;99256.00;;;20.87;63.04
39699;BME280;25372;50.582;12.250;2023-07-31T11:51:20;99245.56;;;21.69;59.53
39699;BME280;25372;50.582;12.250;2023-07-31T12:01:41;99241.19;;;21.53;57.74
39699;BME280;25372;50.582;12.250;2023-07-31T12:12:08;99223.59;;;22.04;58.79
39699;BME280;25372;50.582;12.250;2023-07-31T12:22:29;99218.16;;;22.99;56.79
39699;BME280;25372;50.582;12.250;2023-07-31T12:32:51;99189.03;;;22.61;54.73
39699;BME280;25372;50.582;12.250;2023-07-31T12:43:13;99184.66;;;23.32;52.16
39699;BME280;25372;50.582;12.250;2023-07-31T12:53:35;99150.34;;;22.57;53.54
39699;BME280;25372;50.582;12.250;2023-07-31T13:03:56;99141.69;;;22.40;54.01
39699;BME280;25372;50.582;12.250;2023-07-31T13:14:19;99141.06;;;22.16;54.71
39699;BME280;25372;50.582;12.250;2023-07-31T13:24:40;99144.13;;;21.76;53.46
39699;BME280;25372;50.582;12.250;2023-07-31T13:35:02;99126.91;;;21.78;52.32
39699;BME280;25372;50.582;12.250;2023-07-31T13:45:23;99113.50;;;22.59;52.09
39699;BME280;25372;50.582;12.250;2023-07-31T13:55:45;99100.91;;;22.31;53.19
39699;BME280;25372;50.582;12.250;2023-07-31T14:06:08;99095.28;;;23.04;51.65
39699;BME280;25372;50.582;12.250;2023-07-31T14:16:31;99090.03;;;22.89;52.10
39699;BME280;25372;50.582;12.250;2023-07-31T14:26:52;99089.19;;;23.66;53.18
39699;BME280;25372;50.582;12.250;2023-07-31T14:37:14;99078.78;;;24.19;49.61
39699;BME280;25372;50.582;12.250;2023-07-31T14:47:35;99056.81;;;23.12;52.63
39699;BME280;25372;50.582;12.250;2023-07-31T14:57:57;99051.84;;;25.13;47.08
39699;BME280;25372;50.582;12.250;2023-07-31T15:08:18;99060.88;;;22.44;51.15
39699;BME280;25372;50.582;12.250;2023-07-31T15:18:41;99064.22;;;22.46;55.00
39699;BME280;25372;50.582;12.250;2023-07-31T15:29:04;99061.47;;;22.40;53.04
39699;BME280;25372;50.582;12.250;2023-07-31T15:39:29;99054.22;;;21.83;55.74
39699;BME280;25372;50.582;12.250;2023-07-31T15:49:50;99047.25;;;21.67;55.79
39699;BME280;25372;50.582;12.250;2023-07-31T16:00:13;99047.63;;;21.27;56.55
39699;BME280;25372;50.582;12.250;2023-07-31T16:10:34;99038.78;;;21.12;55.87
39699;BME280;25372;50.582;12.250;2023-07-31T16:20:56;99038.69;;;21.20;55.69
39699;BME280;25372;50.582;12.250;2023-07-31T16:31:18;99059.69;;;20.93;55.56
39699;BME280;25372;50.582;12.250;2023-07-31T16:41:41;99051.41;;;20.88;54.45
39699;BME280;25372;50.582;12.250;2023-07-31T16:52:02;99045.94;;;20.66;55.58
39699;BME280;25372;50.582;12.250;2023-07-31T17:02:24;99043.44;;;20.79;55.22
39699;BME280;25372;50.582;12.250;2023-07-31T17:12:45;99037.75;;;20.52;56.59
39699;BME280;25372;50.582;12.250;2023-07-31T17:23:07;99015.47;;;20.30;56.25
39699;BME280;25372;50.582;12.250;2023-07-31T17:33:28;98996.28;;;20.50;56.29
39699;BME280;25372;50.582;12.250;2023-07-31T17:43:51;99003.47;;;20.49;55.85
39699;BME280;25372;50.582;12.250;2023-07-31T17:54:12;98984.59;;;20.36;58.34
39699;BME280;25372;50.582;12.250;2023-07-31T18:04:34;98986.47;;;20.12;59.02
39699;BME280;25372;50.582;12.250;2023-07-31T18:14:56;98990.31;;;19.94;60.03
39699;BME280;25372;50.582;12.250;2023-07-31T18:25:18;98986.00;;;19.62;60.74
39699;BME280;25372;50.582;12.250;2023-07-31T18:35:40;98973.97;;;19.19;64.62
39699;BME280;25372;50.582;12.250;2023-07-31T18:46:02;98989.66;;;19.06;65.31
39699;BME280;25372;50.582;12.250;2023-07-31T18:56:23;99001.50;;;18.95;67.26
39699;BME280;25372;50.582;12.250;2023-07-31T19:06:46;98975.78;;;18.79;68.08
39699;BME280;25372;50.582;12.250;2023-07-31T19:17:07;98954.78;;;18.44;67.84
39699;BME280;25372;50.582;12.250;2023-07-31T19:27:29;98952.28;;;18.51;68.89
39699;BME280;25372;50.582;12.250;2023-07-31T19:37:50;98945.69;;;18.38;68.79
39699;BME280;25372;50.582;12.250;2023-07-31T19:48:13;98940.56;;;18.12;70.77
39699;BME280;25372;50.582;12.250;2023-07-31T19:58:34;98924.47;;;17.97;71.78
39699;BME280;25372;50.582;12.250;2023-07-31T20:08:57;98918.19;;;17.98;71.54
39699;BME280;25372;50.582;12.250;2023-07-31T20:19:18;98901.94;;;17.76;72.38
39699;BME280;25372;50.582;12.250;2023-07-31T20:29:40;98875.84;;;17.88;69.25
39699;BME280;25372;50.582;12.250;2023-07-31T20:40:05;98864.63;;;18.42;67.53
39699;BME280;25372;50.582;12.250;2023-07-31T20:50:27;98853.81;;;18.44;65.65
39699;BME280;25372;50.582;12.250;2023-07-31T21:00:51;98833.53;;;18.51;66.43
39699;BME280;25372;50.582;12.250;2023-07-31T21:11:13;98819.25;;;18.44;65.22
39699;BME280;25372;50.582;12.250;2023-07-31T21:21:34;98807.59;;;18.53;64.51
39699;BME280;25372;50.582;12.250;2023-07-31T21:31:56;98796.06;;;18.38;65.44
39699;BME280;25372;50.582;12.250;2023-07-31T21:42:17;98782.38;;;18.49;64.69
39699;BME280;25372;50.582;12.250;2023-07-31T21:52:39;98778.88;;;18.49;63.72
39699;BME280;25372;50.582;12.250;2023-07-31T22:03:00;98773.66;;;18.64;63.79
39699;BME280;25372;50.582;12.250;2023-07-31T22:13:22;98767.91;;;18.75;63.05
39699;BME280;25372;50.582;12.250;2023-07-31T22:23:43;98755.09;;;18.79;63.12
39699;BME280;25372;50.582;12.250;2023-07-31T22:34:05;98748.38;;;18.91;65.11
39699;BME280;25372;50.582;12.250;2023-07-31T22:44:26;98739.44;;;18.84;63.75
39699;BME280;25372;50.582;12.250;2023-07-31T22:54:48;98729.50;;;18.54;67.00
39699;BME280;25372;50.582;12.250;2023-07-31T23:05:09;98716.25;;;18.23;69.19
39699;BME280;25372;50.582;12.250;2023-07-31T23:15:32;98703.41;;;18.03;69.96
39699;BME280;25372;50.582;12.250;2023-07-31T23:25:53;98692.34;;;17.26;76.53
39699;BME280;25372;50.582;12.250;2023-07-31T23:36:15;98685.72;;;16.97;79.07
39699;BME280;25372;50.582;12.250;2023-07-31T23:46:36;98666.19;;;16.82;80.36
39699;BME280;25372;50.582;12.250;2023-07-31T23:56:58;98650.59;;;16.87;80.85
